Time;durP1;ratioP1;P1;durP2;ratioP2;P2;SDS_P1;SDS_P2;PMS_P1;PMS_P2;Temp;Humidity;BMP_temperature;BMP_pressure;BME280_temperature;BME280_humidity;BME280_pressure;Samples;Min_cycle;Max_cycle;Signal;HPM_P1;HPM_P2
2022/02/04 00:06:51;;;;;;;3.55;1.88;;;;;;;;;;4991266;28;20146;-72
2022/02/04 00:09:49;;;;;;;3.92;2.10;;;;;;;;;;5003244;28;20047;-72
2022/02/04 00:20:46;;;;;;;3.72;2.00;;;;;;;;;;4991032;28;20054;-72
2022/02/04 00:23:17;;;;;;;4.88;2.42;;;;;;;;;;5000187;28;20046;-72
2022/02/04 00:25:56;;;;;;;4.47;2.35;;;;;;;;;;5005133;28;20053;-72
2022/02/04 00:28:37;;;;;;;5.07;2.65;;;;;;;;;;4998404;28;20081;-72
2022/02/04 00:31:22;;;;;;;4.60;2.47;;;;;;;;;;5001084;28;20049;-72
2022/02/04 00:33:56;;;;;;;4.40;2.78;;;;;;;;;;4958766;28;20062;-72
2022/02/04 00:36:30;;;;;;;4.43;2.08;;;;;;;;;;5004112;28;20571;-72
2022/02/04 00:39:00;;;;;;;6.82;3.47;;;;;;;;;;5003985;28;20056;-72
2022/02/04 00:41:33;;;;;;;5.18;2.47;;;;;;;;;;5005518;28;20470;-72
2022/02/04 00:44:03;;;;;;;5.63;2.65;;;;;;;;;;5004445;28;20125;-72
2022/02/04 00:46:58;;;;;;;5.45;2.55;;;;;;;;;;1804259;28;10022600;-72
2022/02/04 00:49:38;;;;;;;2.67;2.28;;;;;;;;;;3949042;28;10001092;-72
2022/02/04 00:52:14;;;;;;;4.32;2.70;;;;;;;;;;4990920;28;20060;-72
2022/02/04 00:54:50;;;;;;;9.02;2.63;;;;;;;;;;5000847;28;20096;-72
2022/02/04 00:57:34;;;;;;;4.57;2.40;;;;;;;;;;5005510;28;20153;-72
2022/02/04 01:28:06;;;;;;;5.63;2.58;;;;;;;;;;5005535;28;20053;-72
2022/02/04 01:30:35;;;;;;;5.32;2.72;;;;;;;;;;5005075;28;20133;-72
2022/02/04 01:33:04;;;;;;;5.30;2.85;;;;;;;;;;4996006;28;20137;-72
2022/02/04 01:35:33;;;;;;;6.45;2.97;;;;;;;;;;4999013;28;20042;-72
2022/02/04 01:38:02;;;;;;;5.85;2.42;;;;;;;;;;5002862;28;20161;-72
2022/02/04 01:40:31;;;;;;;4.75;2.50;;;;;;;;;;5000955;28;20584;-72
2022/02/04 01:42:59;;;;;;;4.00;2.38;;;;;;;;;;4997296;28;20046;-72
2022/02/04 01:45:27;;;;;;;5.78;2.50;;;;;;;;;;5000427;28;20149;-72
2022/02/04 01:47:56;;;;;;;3.97;2.38;;;;;;;;;;5009442;28;20060;-72
2022/02/04 01:50:24;;;;;;;4.88;2.33;;;;;;;;;;4994368;28;20138;-72
2022/02/04 01:52:53;;;;;;;5.07;2.33;;;;;;;;;;5005949;28;20585;-72
2022/02/04 01:55:23;;;;;;;7.85;2.38;;;;;;;;;;5001310;28;20569;-72
2022/02/04 01:57:51;;;;;;;6.60;2.60;;;;;;;;;;4995157;28;20137;-72
2022/02/04 02:00:20;;;;;;;3.67;2.33;;;;;;;;;;4998671;28;20089;-72
2022/02/04 02:02:48;;;;;;;3.78;2.38;;;;;;;;;;5008680;28;20089;-72
2022/02/04 02:05:16;;;;;;;3.45;2.00;;;;;;;;;;5004670;28;20394;-72
2022/02/04 02:07:47;;;;;;;4.88;2.45;;;;;;;;;;5001428;28;20089;-72
2022/02/04 02:10:17;;;;;;;4.65;2.33;;;;;;;;;;5006258;28;20095;-72
2022/02/04 02:12:57;;;;;;;3.97;2.28;;;;;;;;;;5002471;28;20145;-72
2022/02/04 02:15:31;;;;;;;3.97;2.58;;;;;;;;;;5002087;28;20042;-72
2022/02/04 02:43:22;;;;;;;4.32;2.10;;;;;;;;;;5001989;28;20073;-72
2022/02/04 02:46:04;;;;;;;3.88;2.00;;;;;;;;;;5008291;28;20127;-72
2022/02/04 02:48:44;;;;;;;6.75;2.80;;;;;;;;;;5010320;28;20056;-72
2022/02/04 02:51:41;;;;;;;5.53;2.60;;;;;;;;;;4996051;28;20128;-73
2022/02/04 02:54:36;;;;;;;3.38;2.28;;;;;;;;;;5003507;28;20413;-72
2022/02/04 02:59:59;;;;;;;6.20;2.50;;;;;;;;;;4976046;28;20052;-72
2022/02/04 03:02:27;;;;;;;3.40;2.28;;;;;;;;;;4996060;28;20069;-72
2022/02/04 03:04:55;;;;;;;5.82;2.35;;;;;;;;;;4999813;28;20409;-72
2022/02/04 03:07:24;;;;;;;3.22;1.80;;;;;;;;;;5004466;28;20078;-72
2022/02/04 03:09:52;;;;;;;3.90;2.20;;;;;;;;;;5006322;28;20117;-72
2022/02/04 03:12:22;;;;;;;5.70;2.67;;;;;;;;;;4998562;28;20054;-72
2022/02/04 03:14:52;;;;;;;5.25;2.42;;;;;;;;;;4993634;28;20046;-72
2022/02/04 03:17:20;;;;;;;5.43;2.33;;;;;;;;;;4999718;28;20046;-72
2022/02/04 03:19:53;;;;;;;3.88;2.28;;;;;;;;;;4998606;28;20041;-72
2022/02/04 03:22:36;;;;;;;4.60;2.20;;;;;;;;;;1799905;28;10022782;-73
2022/02/04 03:25:08;;;;;;;6.25;2.60;;;;;;;;;;3968228;28;10001096;-72
2022/02/04 03:27:42;;;;;;;6.40;3.22;;;;;;;;;;4994512;28;20049;-72
2022/02/04 03:30:16;;;;;;;6.03;2.75;;;;;;;;;;5001281;28;20045;-72
2022/02/04 03:32:49;;;;;;;6.85;2.80;;;;;;;;;;5001802;28;20656;-72
2022/02/04 03:35:21;;;;;;;3.78;2.45;;;;;;;;;;4998414;28;20144;-72
2022/02/04 03:37:50;;;;;;;4.45;2.40;;;;;;;;;;4998822;28;20056;-72
2022/02/04 03:40:18;;;;;;;4.13;2.38;;;;;;;;;;5003556;28;20388;-72
2022/02/04 03:42:48;;;;;;;5.88;2.85;;;;;;;;;;5007915;28;20108;-72
2022/02/04 03:45:18;;;;;;;5.60;2.72;;;;;;;;;;4999191;28;20056;-72
2022/02/04 03:47:47;;;;;;;4.50;2.58;;;;;;;;;;4993368;28;20138;-72
2022/02/04 03:50:15;;;;;;;8.80;2.75;;;;;;;;;;4995803;28;20509;-72
2022/02/04 03:52:44;;;;;;;4.15;2.63;;;;;;;;;;4995573;28;20129;-72
2022/02/04 03:55:12;;;;;;;4.75;2.90;;;;;;;;;;5004118;28;20056;-72
2022/02/04 03:57:41;;;;;;;8.05;3.10;;;;;;;;;;5001380;28;20073;-72
2022/02/04 04:00:12;;;;;;;5.43;2.75;;;;;;;;;;4990924;28;20548;-72
2022/02/04 04:02:40;;;;;;;4.88;2.30;;;;;;;;;;5002385;28;20157;-72
2022/02/04 04:05:10;;;;;;;7.15;3.35;;;;;;;;;;4993436;28;20145;-72
2022/02/04 04:07:43;;;;;;;8.13;3.08;;;;;;;;;;4996813;28;20464;-72
2022/02/04 04:10:16;;;;;;;7.88;3.05;;;;;;;;;;5005428;28;20108;-72
2022/02/04 04:12:44;;;;;;;6.78;3.67;;;;;;;;;;5005405;28;20630;-72
2022/02/04 04:15:29;;;;;;;6.25;2.82;;;;;;;;;;4061272;28;10001952;-72
2022/02/04 04:17:57;;;;;;;6.18;3.00;;;;;;;;;;2064983;28;10002040;-72
2022/02/04 04:20:27;;;;;;;7.53;3.38;;;;;;;;;;4994055;28;20512;-72
2022/02/04 04:22:56;;;;;;;8.07;3.55;;;;;;;;;;4994208;28;20137;-72
2022/02/04 04:25:24;;;;;;;9.70;3.95;;;;;;;;;;4995948;28;20417;-72
2022/02/04 04:27:54;;;;;;;8.45;3.70;;;;;;;;;;4999951;28;20042;-72
2022/02/04 04:30:23;;;;;;;8.02;3.85;;;;;;;;;;5003009;28;20148;-72
2022/02/04 04:32:54;;;;;;;7.22;4.35;;;;;;;;;;4992247;28;20050;-72
2022/02/04 04:35:25;;;;;;;8.52;3.33;;;;;;;;;;4994446;28;20060;-72
2022/02/04 04:37:59;;;;;;;8.68;3.85;;;;;;;;;;5001719;28;20046;-72
2022/02/04 04:40:38;;;;;;;9.77;3.65;;;;;;;;;;5000601;28;20041;-72
2022/02/04 04:43:17;;;;;;;7.03;4.20;;;;;;;;;;5003471;28;20042;-72
2022/02/04 04:46:21;;;;;;;9.75;3.72;;;;;;;;;;5007971;28;20121;-72
2022/02/04 05:28:10;;;;;;;9.50;4.93;;;;;;;;;;5000242;28;20144;-72
2022/02/04 05:30:39;;;;;;;8.05;4.50;;;;;;;;;;4992790;28;20562;-72
2022/02/04 05:33:08;;;;;;;8.38;4.82;;;;;;;;;;4995411;28;20562;-73
2022/02/04 05:35:36;;;;;;;12.35;4.10;;;;;;;;;;5008885;28;20136;-73
2022/02/04 05:38:10;;;;;;;7.88;3.60;;;;;;;;;;5009493;28;20078;-73
2022/02/04 05:40:42;;;;;;;8.18;4.38;;;;;;;;;;5004898;28;20128;-73
2022/02/04 05:43:17;;;;;;;10.05;3.83;;;;;;;;;;5007194;28;20042;-73
2022/02/04 05:45:53;;;;;;;;;;;;;;;;;;5006585;28;20162;-73
2022/02/04 05:48:23;;;;;;;11.45;4.70;;;;;;;;;;4998582;28;19921;-73
2022/02/04 05:51:04;;;;;;;10.98;4.88;;;;;;;;;;4998795;28;20049;-73
2022/02/04 05:53:39;;;;;;;12.07;4.53;;;;;;;;;;5005485;28;20161;-72
2022/02/04 05:56:15;;;;;;;11.63;4.35;;;;;;;;;;5001508;28;20153;-72
2022/02/04 05:58:54;;;;;;;9.98;4.75;;;;;;;;;;4997825;28;20064;-73
2022/02/04 06:01:38;;;;;;;10.32;5.32;;;;;;;;;;4991882;28;20133;-73
2022/02/04 06:04:21;;;;;;;11.48;4.45;;;;;;;;;;4996318;28;20133;-72
2022/02/04 06:13:04;;;;;;;12.60;4.85;;;;;;;;;;5003910;28;20108;-73
2022/02/04 06:23:53;;;;;;;14.57;5.43;;;;;;;;;;5002095;28;20057;-72
2022/02/04 06:26:23;;;;;;;11.93;5.75;;;;;;;;;;4988271;28;20086;-73
2022/02/04 06:28:51;;;;;;;14.18;6.35;;;;;;;;;;4991442;28;20054;-72
2022/02/04 06:31:22;;;;;;;14.55;6.55;;;;;;;;;;4991296;28;20050;-73
2022/02/04 06:33:50;;;;;;;13.95;6.10;;;;;;;;;;5005423;28;20505;-73
2022/02/04 06:36:18;;;;;;;12.52;5.63;;;;;;;;;;4997337;28;20062;-73
2022/02/04 06:38:47;;;;;;;17.63;6.93;;;;;;;;;;5008136;28;20064;-73
2022/02/04 06:41:15;;;;;;;13.90;6.10;;;;;;;;;;5007273;28;20150;-73
2022/02/04 06:43:45;;;;;;;13.38;6.28;;;;;;;;;;5007410;28;20069;-72
2022/02/04 06:46:14;;;;;;;16.23;7.18;;;;;;;;;;5008639;28;20541;-73
2022/02/04 06:48:43;;;;;;;15.50;6.70;;;;;;;;;;5004384;28;20077;-73
2022/02/04 06:51:11;;;;;;;15.95;6.32;;;;;;;;;;5001329;28;20049;-73
2022/02/04 06:53:39;;;;;;;14.57;6.40;;;;;;;;;;5002345;28;20046;-72
2022/02/04 06:56:07;;;;;;;19.63;7.88;;;;;;;;;;5009210;28;20153;-72
2022/02/04 06:58:37;;;;;;;14.63;6.40;;;;;;;;;;5009293;28;20188;-73
2022/02/04 07:01:07;;;;;;;18.52;7.03;;;;;;;;;;5006510;28;20050;-73
2022/02/04 07:03:36;;;;;;;19.67;7.50;;;;;;;;;;5002976;28;20060;-73
2022/02/04 07:06:10;;;;;;;19.38;7.10;;;;;;;;;;5007224;28;20089;-73
2022/02/04 07:08:47;;;;;;;18.35;8.23;;;;;;;;;;5001696;28;20048;-73
2022/02/04 07:11:37;;;;;;;22.17;8.88;;;;;;;;;;5001185;28;20100;-73
2022/02/04 07:14:15;;;;;;;18.98;7.80;;;;;;;;;;4993246;28;20435;-73
2022/02/04 07:17:16;;;;;;;20.70;7.90;;;;;;;;;;2467841;28;10023637;-74
2022/02/04 07:19:47;;;;;;;20.30;7.50;;;;;;;;;;3618718;28;10001757;-73
2022/02/04 07:22:17;;;;;;;17.25;7.30;;;;;;;;;;5008034;28;20449;-72
2022/02/04 07:24:45;;;;;;;19.30;7.65;;;;;;;;;;4995822;28;20160;-72
2022/02/04 07:27:14;;;;;;;20.38;8.18;;;;;;;;;;4991192;28;20065;-73
2022/02/04 07:29:46;;;;;;;19.70;7.97;;;;;;;;;;5001977;28;20080;-73
2022/02/04 07:32:22;;;;;;;23.85;8.65;;;;;;;;;;5008298;28;20259;-73
2022/02/04 07:35:13;;;;;;;;;;;;;;;;;;5008658;28;20092;-72
2022/02/04 07:43:12;;;;;;;20.17;7.25;;;;;;;;;;5001538;28;20520;-72
2022/02/04 07:45:41;;;;;;;18.88;8.15;;;;;;;;;;4996078;28;20046;-73
2022/02/04 07:48:11;;;;;;;19.00;7.85;;;;;;;;;;5007173;28;20045;-73
2022/02/04 07:50:40;;;;;;;18.80;8.73;;;;;;;;;;4998865;28;20104;-73
2022/02/04 07:53:09;;;;;;;18.08;8.30;;;;;;;;;;4995871;28;20085;-73
2022/02/04 07:55:37;;;;;;;16.98;7.60;;;;;;;;;;4990250;28;20538;-73
2022/02/04 07:58:06;;;;;;;20.33;8.82;;;;;;;;;;4990286;28;20070;-73
2022/02/04 08:00:37;;;;;;;18.85;7.43;;;;;;;;;;4999753;28;20052;-73
2022/02/04 08:03:19;;;;;;;18.30;7.60;;;;;;;;;;5001194;28;20072;-73
2022/02/04 08:05:51;;;;;;;19.77;7.88;;;;;;;;;;4989694;28;20708;-73
2022/02/04 08:08:26;;;;;;;20.17;8.40;;;;;;;;;;5004643;28;20053;-73
2022/02/04 08:11:12;;;;;;;21.05;8.55;;;;;;;;;;5008086;28;20050;-73
2022/02/04 08:14:05;;;;;;;15.93;7.70;;;;;;;;;;5008546;28;20050;-73
2022/02/04 08:25:33;;;;;;;16.55;7.70;;;;;;;;;;1717158;28;10022811;-73
2022/02/04 08:36:55;;;;;;;22.38;9.00;;;;;;;;;;5001001;28;20486;-73
2022/02/04 08:46:26;;;;;;;20.98;8.48;;;;;;;;;;5004076;28;20494;-73
2022/02/04 08:51:02;;;;;;;18.92;8.75;;;;;;;;;;4993217;28;20497;-73
2022/02/04 08:56:34;;;;;;;19.48;8.20;;;;;;;;;;4976328;28;20144;-73
2022/02/04 08:59:10;;;;;;;18.77;8.55;;;;;;;;;;5002715;28;20046;-73
2022/02/04 09:01:49;;;;;;;20.35;8.10;;;;;;;;;;5003944;28;20097;-73
2022/02/04 09:04:28;;;;;;;20.35;8.10;;;;;;;;;;5007392;28;20057;-73
2022/02/04 09:07:03;;;;;;;17.70;7.93;;;;;;;;;;5006743;28;20120;-73
2022/02/04 09:09:47;;;;;;;18.65;8.40;;;;;;;;;;4995542;28;20049;-73
2022/02/04 09:18:32;;;;;;;19.38;8.30;;;;;;;;;;4999280;28;20141;-74
2022/02/04 09:21:36;;;;;;;17.30;7.53;;;;;;;;;;5005722;28;20054;-73
2022/02/04 09:24:02;;;;;;;21.05;8.70;;;;;;;;;;5000266;28;20054;-73
2022/02/04 09:26:31;;;;;;;19.35;7.85;;;;;;;;;;4992800;28;20046;-73
2022/02/04 09:29:02;;;;;;;16.52;7.35;;;;;;;;;;4993877;28;20050;-73
2022/02/04 09:31:30;;;;;;;18.48;7.70;;;;;;;;;;4995020;28;20046;-72
2022/02/04 09:34:00;;;;;;;16.70;7.50;;;;;;;;;;4997322;28;20497;-73
2022/02/04 09:36:29;;;;;;;18.40;8.98;;;;;;;;;;4995429;28;20477;-72
2022/02/04 09:38:59;;;;;;;15.95;8.30;;;;;;;;;;4997403;28;20046;-73
2022/02/04 09:41:28;;;;;;;18.80;8.35;;;;;;;;;;5004102;28;20118;-72
2022/02/04 09:43:57;;;;;;;17.15;7.68;;;;;;;;;;5004839;28;20050;-72
2022/02/04 09:46:33;;;;;;;17.65;7.60;;;;;;;;;;5004008;28;20057;-72
2022/02/04 09:49:02;;;;;;;17.90;8.43;;;;;;;;;;5006485;28;20058;-72
2022/02/04 09:51:49;;;;;;;19.35;8.20;;;;;;;;;;5004797;28;20078;-72
2022/02/04 10:08:35;;;;;;;15.40;7.28;;;;;;;;;;5006941;28;20045;-73
2022/02/04 10:14:09;;;;;;;15.75;6.85;;;;;;;;;;5004397;28;21729;-70
2022/02/04 10:19:29;;;;;;;17.60;7.10;;;;;;;;;;5003904;28;20054;-70
2022/02/04 10:21:58;;;;;;;13.63;6.28;;;;;;;;;;5005918;28;20046;-70
2022/02/04 10:24:28;;;;;;;14.23;6.78;;;;;;;;;;5008233;28;20081;-70
2022/02/04 10:27:12;;;;;;;13.25;6.57;;;;;;;;;;5004836;28;20046;-70
2022/02/04 10:29:42;;;;;;;14.13;6.63;;;;;;;;;;5011459;28;20564;-69
2022/02/04 10:32:11;;;;;;;16.95;7.00;;;;;;;;;;5007440;28;20050;-70
2022/02/04 10:34:43;;;;;;;12.65;6.10;;;;;;;;;;5000261;28;20568;-70
2022/02/04 10:37:25;;;;;;;14.85;7.25;;;;;;;;;;5002464;28;20054;-70
2022/02/04 10:40:11;;;;;;;14.27;6.50;;;;;;;;;;5001069;28;20092;-70
2022/02/04 10:42:55;;;;;;;12.90;5.95;;;;;;;;;;4999198;28;20092;-70
2022/02/04 10:45:42;;;;;;;14.05;6.72;;;;;;;;;;5004466;28;20093;-69
2022/02/04 10:51:41;;;;;;;14.40;7.13;;;;;;;;;;4968830;28;20054;-70
2022/02/04 10:57:38;;;;;;;11.02;5.16;;;;;;;;;;1129665;28;10021782;-70
2022/02/04 11:00:15;;;;;;;11.80;5.13;;;;;;;;;;4661816;28;10001661;-69
2022/02/04 11:02:56;;;;;;;9.70;5.10;;;;;;;;;;4990152;28;20047;-69
2022/02/04 11:05:31;;;;;;;11.98;4.90;;;;;;;;;;4975291;28;20057;-73
2022/02/04 11:08:27;;;;;;;9.85;5.00;;;;;;;;;;4990190;28;20050;-69
2022/02/04 11:11:38;;;;;;;7.15;4.30;;;;;;;;;;4985425;28;20046;-69
2022/02/04 11:34:04;;;;;;;8.57;4.07;;;;;;;;;;4945879;28;20115;-70
2022/02/04 11:36:43;;;;;;;8.88;4.43;;;;;;;;;;4998442;28;20042;-69
2022/02/04 11:48:58;;;;;;;5.40;3.40;;;;;;;;;;4994278;28;20050;-70
2022/02/04 11:51:44;;;;;;;7.57;3.60;;;;;;;;;;4989411;28;20054;-70
2022/02/04 11:54:35;;;;;;;6.45;4.03;;;;;;;;;;5005202;28;20042;-70
2022/02/04 11:57:20;;;;;;;7.10;3.40;;;;;;;;;;5009968;28;20475;-69
2022/02/04 11:59:49;;;;;;;;;;;;;;;;;;4997005;28;20129;-70
2022/02/04 12:02:38;;;;;;;5.50;3.30;;;;;;;;;;5002277;28;19925;-70
2022/02/04 12:05:43;;;;;;;5.63;2.97;;;;;;;;;;2487921;28;10023597;-71
2022/02/04 12:08:30;;;;;;;6.07;3.55;;;;;;;;;;3641320;28;10001944;-70
2022/02/04 12:11:11;;;;;;;6.93;2.78;;;;;;;;;;5021212;28;20045;-71
2022/02/04 12:14:09;;;;;;;5.85;3.17;;;;;;;;;;5013064;28;20144;-70
2022/02/04 12:17:02;;;;;;;6.43;3.38;;;;;;;;;;5026342;28;20042;-70
2022/02/04 12:19:43;;;;;;;5.90;2.97;;;;;;;;;;5027014;28;20527;-70
2022/02/04 12:22:12;;;;;;;5.50;2.92;;;;;;;;;;5023353;28;20146;-73
2022/02/04 12:24:43;;;;;;;8.45;3.63;;;;;;;;;;5017985;28;20046;-73
2022/02/04 12:27:28;;;;;;;9.70;3.63;;;;;;;;;;5016058;28;20285;-73
2022/02/04 12:29:57;;;;;;;7.90;3.95;;;;;;;;;;5022161;28;20065;-69
2022/02/04 12:32:28;;;;;;;9.30;4.63;;;;;;;;;;5016100;28;20049;-69
2022/02/04 12:34:58;;;;;;;8.02;3.42;;;;;;;;;;5015467;28;20077;-69
2022/02/04 12:37:27;;;;;;;9.38;4.40;;;;;;;;;;5009525;28;20077;-68
2022/02/04 12:39:56;;;;;;;10.20;4.50;;;;;;;;;;5022150;28;20046;-67
2022/02/04 12:42:25;;;;;;;8.25;4.25;;;;;;;;;;5025771;28;20081;-68
2022/02/04 12:44:56;;;;;;;18.38;5.55;;;;;;;;;;5018439;28;20073;-68
2022/02/04 12:47:33;;;;;;;9.32;4.88;;;;;;;;;;5025866;28;20465;-68
2022/02/04 12:50:07;;;;;;;9.35;4.43;;;;;;;;;;5023084;28;20115;-68
2022/02/04 12:52:44;;;;;;;9.85;5.28;;;;;;;;;;5020323;28;20138;-68
2022/02/04 12:55:21;;;;;;;8.85;4.47;;;;;;;;;;5021131;28;20038;-67
2022/02/04 13:01:59;;;;;;;8.35;4.32;;;;;;;;;;5018381;28;20076;-68
2022/02/04 13:03:31;;;;;;;10.63;5.05;;;;;;;;;;5016588;28;20173;-68
2022/02/04 13:09:10;;;;;;;11.95;5.45;;;;;;;;;;5023190;28;20111;-68
2022/02/04 13:11:37;;;;;;;9.43;4.72;;;;;;;;;;5023701;28;20065;-68
2022/02/04 13:14:06;;;;;;;11.52;5.13;;;;;;;;;;5025168;28;20053;-69
2022/02/04 13:16:36;;;;;;;10.05;4.97;;;;;;;;;;5023923;28;20052;-69
2022/02/04 13:19:06;;;;;;;12.27;5.13;;;;;;;;;;5025124;28;20139;-69
2022/02/04 13:21:37;;;;;;;10.40;5.10;;;;;;;;;;5019295;28;20054;-69
2022/02/04 13:24:08;;;;;;;9.38;4.57;;;;;;;;;;5024924;28;20049;-68
2022/02/04 13:26:37;;;;;;;13.45;5.45;;;;;;;;;;5018605;28;20056;-69
2022/02/04 13:29:08;;;;;;;11.32;4.78;;;;;;;;;;5014130;28;20424;-68
2022/02/04 13:31:37;;;;;;;10.68;5.35;;;;;;;;;;5018739;28;20068;-69
2022/02/04 13:34:09;;;;;;;9.27;4.50;;;;;;;;;;5023666;28;20045;-68
2022/02/04 13:36:44;;;;;;;11.85;5.13;;;;;;;;;;5026623;28;20058;-68
2022/02/04 13:39:20;;;;;;;13.43;5.18;;;;;;;;;;5024662;28;20045;-68
2022/02/04 13:42:04;;;;;;;12.40;5.47;;;;;;;;;;5026258;28;20603;-69
2022/02/04 13:44:41;;;;;;;10.13;4.82;;;;;;;;;;5023363;28;20092;-69
2022/02/04 13:47:21;;;;;;;8.57;4.63;;;;;;;;;;5021541;28;20068;-69
2022/02/04 13:50:16;;;;;;;8.73;4.22;;;;;;;;;;5027120;28;20064;-69
2022/02/04 13:52:58;;;;;;;8.45;4.55;;;;;;;;;;5011363;28;20398;-69
2022/02/04 13:55:37;;;;;;;9.32;5.35;;;;;;;;;;5012355;28;20054;-68
2022/02/04 13:58:22;;;;;;;9.20;4.72;;;;;;;;;;5018137;28;20494;-69
2022/02/04 14:00:58;;;;;;;10.15;4.88;;;;;;;;;;5022184;28;20068;-69
2022/02/04 14:03:29;;;;;;;10.32;5.22;;;;;;;;;;5017814;28;20050;-69
2022/02/04 14:06:13;;;;;;;8.35;4.55;;;;;;;;;;671171;28;10002134;-69
2022/02/04 14:08:50;;;;;;;11.32;4.70;;;;;;;;;;5012552;28;20334;-69
2022/02/04 14:11:32;;;;;;;9.93;4.95;;;;;;;;;;5012918;28;20061;-69
2022/02/04 14:14:05;;;;;;;12.30;5.50;;;;;;;;;;5022085;28;20502;-69
2022/02/04 14:16:34;;;;;;;10.50;5.43;;;;;;;;;;5025378;28;20544;-69
2022/02/04 14:19:03;;;;;;;10.25;4.75;;;;;;;;;;5025479;28;20081;-69
2022/02/04 14:21:33;;;;;;;9.95;4.28;;;;;;;;;;5024275;28;20266;-69
2022/02/04 14:24:09;;;;;;;12.57;4.03;;;;;;;;;;5024974;28;20507;-69
2022/02/04 14:26:42;;;;;;;12.00;4.30;;;;;;;;;;5023914;28;20069;-69
2022/02/04 14:29:16;;;;;;;12.63;4.63;;;;;;;;;;5018862;28;20049;-69
2022/02/04 14:31:50;;;;;;;10.15;4.50;;;;;;;;;;5022420;28;20509;-69
2022/02/04 14:37:29;;;;;;;9.90;4.43;;;;;;;;;;5013503;28;20091;-69
2022/02/04 14:51:38;;;;;;;9.57;4.22;;;;;;;;;;5032708;28;20095;-69
2022/02/04 14:54:08;;;;;;;9.05;3.75;;;;;;;;;;5002153;28;20060;-69
2022/02/04 15:02:38;;;;;;;6.93;3.67;;;;;;;;;;5016088;28;20167;-69
2022/02/04 15:05:10;;;;;;;7.55;3.15;;;;;;;;;;5022275;28;20053;-69
2022/02/04 15:07:41;;;;;;;6.40;3.10;;;;;;;;;;5021534;28;20492;-69
2022/02/04 15:10:15;;;;;;;8.95;3.17;;;;;;;;;;5026246;28;20052;-69
2022/02/04 15:12:46;;;;;;;4.63;2.88;;;;;;;;;;5016771;28;20132;-69
2022/02/04 15:15:15;;;;;;;7.18;3.45;;;;;;;;;;5025438;28;20417;-69
2022/02/04 15:17:44;;;;;;;5.88;2.97;;;;;;;;;;5022498;28;20104;-69
2022/02/04 15:20:13;;;;;;;7.05;3.00;;;;;;;;;;5025782;28;20045;-69
2022/02/04 15:22:42;;;;;;;5.25;2.60;;;;;;;;;;5020763;28;20481;-68
2022/02/04 15:25:20;;;;;;;6.57;3.10;;;;;;;;;;5020027;28;20056;-68
2022/02/04 15:28:00;;;;;;;4.97;2.83;;;;;;;;;;5016120;28;20056;-65
2022/02/04 15:30:33;;;;;;;8.90;2.90;;;;;;;;;;5018681;28;20049;-65
2022/02/04 15:33:02;;;;;;;6.80;2.47;;;;;;;;;;5019740;28;20061;-65
2022/02/04 15:35:32;;;;;;;2.95;1.63;;;;;;;;;;5024118;28;20050;-65
2022/02/04 15:38:01;;;;;;;7.65;2.70;;;;;;;;;;5024297;28;20053;-68
2022/02/04 15:40:30;;;;;;;5.63;2.30;;;;;;;;;;5019194;28;20092;-69
2022/02/04 15:43:03;;;;;;;9.73;2.50;;;;;;;;;;5013540;28;20057;-68
2022/02/04 15:46:02;;;;;;;5.65;2.83;;;;;;;;;;5026153;28;20107;-69
2022/02/04 15:49:01;;;;;;;4.28;1.73;;;;;;;;;;5009227;28;20076;-70
2022/02/04 15:51:44;;;;;;;4.55;1.60;;;;;;;;;;5009049;28;20516;-70
2022/02/04 15:54:38;;;;;;;4.85;2.17;;;;;;;;;;5020152;28;20132;-70
2022/02/04 15:57:29;;;;;;;5.07;2.77;;;;;;;;;;5010371;28;20085;-70
2022/02/04 16:00:16;;;;;;;3.95;2.40;;;;;;;;;;5018524;28;20296;-70
2022/02/04 16:03:02;;;;;;;5.10;2.70;;;;;;;;;;5020390;28;20045;-70
2022/02/04 16:05:44;;;;;;;6.75;3.10;;;;;;;;;;1668678;28;10023651;-70
2022/02/04 16:08:16;;;;;;;6.45;2.90;;;;;;;;;;3969104;28;10001096;-70
2022/02/04 16:10:54;;;;;;;6.25;3.08;;;;;;;;;;5004985;28;20038;-70
2022/02/04 16:13:44;;;;;;;6.45;3.25;;;;;;;;;;4996122;28;20661;-69
2022/02/04 16:16:25;;;;;;;5.50;3.10;;;;;;;;;;5007513;28;20094;-69
2022/02/04 16:19:05;;;;;;;8.18;3.08;;;;;;;;;;4999700;28;20055;-70
2022/02/04 16:21:42;;;;;;;6.25;2.78;;;;;;;;;;5000556;28;20053;-70
2022/02/04 16:27:09;;;;;;;4.88;2.63;;;;;;;;;;4991209;28;20054;-69
2022/02/04 16:29:40;;;;;;;4.93;2.72;;;;;;;;;;5004759;28;20093;-69
2022/02/04 16:32:13;;;;;;;8.57;2.92;;;;;;;;;;5005114;28;20080;-69
2022/02/04 16:34:43;;;;;;;6.63;3.30;;;;;;;;;;5007725;28;20117;-69
2022/02/04 16:37:25;;;;;;;6.10;2.75;;;;;;;;;;4999401;28;20409;-69
2022/02/04 16:39:54;;;;;;;6.35;2.67;;;;;;;;;;5004866;28;20045;-70
2022/02/04 16:42:24;;;;;;;5.25;2.78;;;;;;;;;;5007991;28;20125;-69
2022/02/04 16:44:54;;;;;;;6.70;2.67;;;;;;;;;;5010672;28;20058;-70
2022/02/04 16:47:25;;;;;;;4.72;2.50;;;;;;;;;;5008236;28;20049;-68
2022/02/04 16:49:54;;;;;;;8.40;3.25;;;;;;;;;;5004931;28;20101;-68
2022/02/04 16:52:23;;;;;;;4.95;2.72;;;;;;;;;;5001005;28;20054;-69
2022/02/04 16:54:52;;;;;;;4.53;2.50;;;;;;;;;;5007258;28;20458;-68
2022/02/04 16:57:24;;;;;;;5.40;2.60;;;;;;;;;;5008286;28;20057;-69
2022/02/04 16:59:53;;;;;;;8.15;2.90;;;;;;;;;;5009965;28;20069;-71
2022/02/04 17:02:22;;;;;;;6.50;3.22;;;;;;;;;;4992116;28;20050;-69
2022/02/04 17:04:52;;;;;;;5.53;2.95;;;;;;;;;;5018913;28;20513;-69
2022/02/04 17:07:25;;;;;;;5.53;2.17;;;;;;;;;;5026470;28;20049;-69
2022/02/04 17:09:54;;;;;;;10.27;2.50;;;;;;;;;;5031649;28;20368;-69
2022/02/04 17:12:29;;;;;;;8.70;3.13;;;;;;;;;;5029487;28;20058;-72
2022/02/04 17:14:59;;;;;;;11.93;3.20;;;;;;;;;;5028625;28;20049;-69
2022/02/04 17:17:28;;;;;;;6.45;2.78;;;;;;;;;;5030947;28;20053;-71
2022/02/04 17:20:06;;;;;;;6.97;2.90;;;;;;;;;;5015816;28;20469;-69
2022/02/04 17:22:36;;;;;;;10.82;3.22;;;;;;;;;;5019877;28;20069;-69
2022/02/04 17:25:09;;;;;;;6.00;2.60;;;;;;;;;;5015313;28;20056;-68
2022/02/04 17:27:37;;;;;;;9.10;3.15;;;;;;;;;;5031112;28;20128;-68
2022/02/04 17:30:07;;;;;;;6.00;2.88;;;;;;;;;;5026059;28;20054;-69
2022/02/04 17:32:36;;;;;;;6.60;2.58;;;;;;;;;;5027387;28;20046;-69
2022/02/04 17:35:07;;;;;;;8.00;2.90;;;;;;;;;;5022994;28;20053;-69
2022/02/04 17:37:36;;;;;;;11.90;3.45;;;;;;;;;;5027450;28;20054;-69
2022/02/04 17:40:05;;;;;;;9.52;3.03;;;;;;;;;;5029420;28;20056;-68
2022/02/04 17:42:35;;;;;;;11.00;3.40;;;;;;;;;;5020869;28;20075;-69
2022/02/04 17:45:05;;;;;;;9.15;2.97;;;;;;;;;;5028253;28;20069;-68
2022/02/04 17:47:34;;;;;;;7.25;2.85;;;;;;;;;;5018092;28;20136;-69
2022/02/04 17:50:07;;;;;;;7.68;3.42;;;;;;;;;;5029504;28;20045;-69
2022/02/04 17:52:42;;;;;;;5.40;2.88;;;;;;;;;;5023921;28;20049;-69
2022/02/04 17:55:14;;;;;;;;;;;;;;;;;;5018109;28;20132;-72
2022/02/04 17:57:47;;;;;;;4.72;2.60;;;;;;;;;;5018579;28;19925;-68
2022/02/04 18:00:52;;;;;;;7.57;3.80;;;;;;;;;;5016834;28;20050;-69
2022/02/04 18:03:33;;;;;;;5.57;3.30;;;;;;;;;;4992240;28;20049;-72
2022/02/04 18:06:09;;;;;;;4.97;3.25;;;;;;;;;;332486;28;10022609;-69
2022/02/04 18:08:39;;;;;;;8.23;3.97;;;;;;;;;;5020736;28;20042;-68
2022/02/04 18:11:08;;;;;;;6.07;3.58;;;;;;;;;;5009687;28;20060;-69
2022/02/04 18:13:37;;;;;;;8.73;4.18;;;;;;;;;;5025658;28;20057;-68
2022/02/04 18:16:05;;;;;;;7.00;3.78;;;;;;;;;;5009954;28;20411;-71
2022/02/04 18:18:34;;;;;;;7.43;3.92;;;;;;;;;;5015733;28;20490;-68
2022/02/04 18:21:06;;;;;;;6.47;4.03;;;;;;;;;;5008289;28;20041;-68
2022/02/04 18:23:35;;;;;;;7.45;4.00;;;;;;;;;;5019908;28;20108;-68
2022/02/04 18:26:11;;;;;;;7.55;3.28;;;;;;;;;;5017153;28;20053;-67
2022/02/04 18:28:41;;;;;;;;;;;;;;;;;;5016467;28;20437;-69
2022/02/04 18:31:09;;;;;;;9.93;3.20;;;;;;;;;;5019869;28;19925;-71
2022/02/04 18:33:38;;;;;;;7.55;4.05;;;;;;;;;;5014877;28;20046;-69
2022/02/04 18:36:06;;;;;;;9.90;3.75;;;;;;;;;;5013090;28;20553;-69
2022/02/04 18:38:45;;;;;;;5.68;3.30;;;;;;;;;;5022201;28;20596;-69
2022/02/04 18:41:36;;;;;;;9.05;3.63;;;;;;;;;;5010741;28;20278;-68
2022/02/04 18:44:09;;;;;;;6.28;2.75;;;;;;;;;;5017147;28;20477;-68
2022/02/04 18:46:58;;;;;;;6.32;3.00;;;;;;;;;;5016853;28;20131;-69
2022/02/04 18:49:34;;;;;;;6.93;3.10;;;;;;;;;;5013591;28;20054;-69
2022/02/04 18:52:20;;;;;;;;;;;;;;;;;;5016577;28;20052;-66
2022/02/04 18:55:26;;;;;;;6.28;2.78;;;;;;;;;;5017232;28;19933;-66
2022/02/04 18:57:45;;;;;;;6.47;2.67;;;;;;;;;;5017286;28;20050;-66
2022/02/04 19:00:17;;;;;;;5.00;2.38;;;;;;;;;;5015705;28;20136;-66
2022/02/04 19:02:50;;;;;;;4.78;1.98;;;;;;;;;;5018816;28;20041;-66
2022/02/04 19:05:23;;;;;;;5.82;2.00;;;;;;;;;;5023965;28;20065;-66
2022/02/04 19:07:57;;;;;;;3.33;1.63;;;;;;;;;;5018141;28;20152;-67
2022/02/04 19:10:25;;;;;;;2.30;1.40;;;;;;;;;;5025777;28;20477;-66
2022/02/04 19:13:00;;;;;;;4.85;1.55;;;;;;;;;;5022779;28;20052;-66
2022/02/04 19:18:18;;;;;;;2.85;1.23;;;;;;;;;;5016188;28;20049;-66
2022/02/04 19:20:53;;;;;;;;;;;;;;;;;;5022730;28;20067;-67
2022/02/04 19:23:26;;;;;;;1.63;1.00;;;;;;;;;;5017124;28;20693;-66
2022/02/04 19:25:58;;;;;;;3.03;1.15;;;;;;;;;;5017846;28;20047;-66
2022/02/04 19:28:29;;;;;;;2.15;0.80;;;;;;;;;;5018970;28;20049;-66
2022/02/04 19:30:59;;;;;;;1.58;0.90;;;;;;;;;;5021285;28;20084;-69
2022/02/04 19:33:27;;;;;;;1.13;0.68;;;;;;;;;;5018387;28;20041;-71
2022/02/04 19:35:58;;;;;;;1.08;0.85;;;;;;;;;;5013133;28;20052;-70